createdAt,value
2023-01-21T00:01:14.486Z,102691.56
2023-01-21T00:03:42.715Z,102692.50
2023-01-21T00:06:11.421Z,102694.91
2023-01-21T00:08:39.331Z,102696.59
2023-01-21T00:11:08.302Z,102704.47
2023-01-21T00:13:37.174Z,102708.88
2023-01-21T00:16:07.139Z,102710.56
2023-01-21T00:18:35.966Z,102711.16
2023-01-21T00:21:03.934Z,102724.81
2023-01-21T00:23:31.762Z,102727.88
2023-01-21T00:26:00.171Z,102653.09
2023-01-21T00:28:30.155Z,102719.06
2023-01-21T00:30:59.348Z,102723.16
2023-01-21T00:33:29.161Z,102732.72
2023-01-21T00:36:01.451Z,102726.19
2023-01-21T00:38:29.415Z,102711.91
2023-01-21T00:41:01.937Z,102722.84
2023-01-21T00:43:30.138Z,102737.25
2023-01-21T00:45:58.289Z,102734.81
2023-01-21T00:48:26.564Z,102740.00
2023-01-21T00:50:59.243Z,102744.84
2023-01-21T00:53:27.628Z,102759.13
2023-01-21T00:55:59.231Z,102755.19
2023-01-21T00:58:27.300Z,102762.31
2023-01-21T01:01:02.160Z,102768.53
2023-01-21T01:03:30.530Z,102765.19
2023-01-21T01:06:04.297Z,102760.78
2023-01-21T01:08:32.599Z,102775.06
2023-01-21T01:11:01.017Z,102769.75
2023-01-21T01:13:29.878Z,102766.41
2023-01-21T01:15:58.893Z,102759.44
2023-01-21T01:18:27.602Z,102774.16
2023-01-21T01:20:55.789Z,102779.31
2023-01-21T01:23:25.621Z,102767.31
2023-01-21T01:25:57.486Z,102774.00
2023-01-21T01:28:25.531Z,102770.34
2023-01-21T01:30:53.762Z,102776.44
2023-01-21T01:33:22.479Z,102783.13
2023-01-21T01:35:50.676Z,102783.13
2023-01-21T01:38:23.582Z,102776.75
2023-01-21T01:40:53.829Z,102793.44
2023-01-21T01:43:23.951Z,102783.56
2023-01-21T01:45:53.347Z,102805.44
2023-01-21T01:48:27.440Z,102806.34
2023-01-21T01:50:57.952Z,102804.53
2023-01-21T01:53:27.181Z,102817.91
2023-01-21T01:55:56.947Z,102819.88
2023-01-21T01:58:25.568Z,102823.06
2023-01-21T02:00:53.410Z,102825.63
2023-01-21T02:03:38.884Z,102830.81
2023-01-21T02:06:07.258Z,102820.47
2023-01-21T02:08:36.382Z,102828.38
2023-01-21T02:11:12.041Z,102835.38
2023-01-21T02:13:41.364Z,102832.47
2023-01-21T02:16:21.113Z,102847.81
2023-01-21T02:18:57.544Z,102841.59
2023-01-21T02:21:54.571Z,102855.25
2023-01-21T02:25:11.115Z,102848.13
2023-01-21T02:27:50.969Z,102860.41
2023-01-21T02:30:38.945Z,102863.75
2023-01-21T02:33:27.851Z,102870.44
2023-01-21T02:36:05.776Z,102873.00
2023-01-21T02:38:40.618Z,102847.03
2023-01-21T02:41:19.330Z,102889.09
2023-01-21T02:43:55.047Z,102880.28
2023-01-21T02:46:32.568Z,102882.41
2023-01-21T02:49:06.446Z,102890.75
2023-01-21T02:51:37.139Z,102902.91
2023-01-21T02:54:15.035Z,102876.47
2023-01-21T02:56:45.743Z,102905.31
2023-01-21T02:59:14.336Z,102791.38
2023-01-21T03:01:54.939Z,102907.00
2023-01-21T03:04:44.884Z,102918.22
2023-01-21T03:07:22.514Z,102918.19
2023-01-21T03:09:50.508Z,102920.44
2023-01-21T03:12:31.865Z,102916.97
2023-01-21T03:15:23.782Z,102925.00
2023-01-21T03:17:57.646Z,102925.31
2023-01-21T03:20:30.327Z,102926.41
2023-01-21T03:23:03.307Z,102934.59
2023-01-21T03:25:34.983Z,102892.03
2023-01-21T03:28:07.969Z,102940.84
2023-01-21T03:30:40.173Z,102939.28
2023-01-21T03:33:10.705Z,102942.31
2023-01-21T03:35:44.756Z,102944.88
2023-01-21T03:38:17.763Z,102952.56
2023-01-21T03:40:53.464Z,102955.75
2023-01-21T03:43:21.909Z,102958.16
2023-01-21T03:45:56.703Z,102962.41
2023-01-21T03:48:32.671Z,102962.41
2023-01-21T03:51:07.656Z,102966.06
2023-01-21T03:53:35.800Z,102967.88
2023-01-21T03:56:04.410Z,102975.78
2023-01-21T03:58:33.583Z,102960.75
2023-01-21T04:01:01.703Z,102969.59
2023-01-21T04:03:29.583Z,102982.81
2023-01-21T04:05:57.475Z,102984.03
2023-01-21T04:08:26.922Z,102993.75
2023-01-21T04:10:54.773Z,102991.50
2023-01-21T04:13:22.624Z,102998.66
2023-01-21T04:15:50.867Z,103002.13
2023-01-21T04:18:18.670Z,102999.41
2023-01-21T04:20:47.458Z,102967.56
2023-01-21T04:23:15.547Z,103022.63
2023-01-21T04:25:44.821Z,102993.69
2023-01-21T04:28:12.633Z,103031.13
2023-01-21T04:30:40.639Z,103024.13
2023-01-21T04:33:09.885Z,103033.22
2023-01-21T04:35:37.792Z,103035.03
2023-01-21T04:38:07.404Z,103033.97
2023-01-21T04:40:35.274Z,103040.22
2023-01-21T04:43:04.590Z,103030.91
2023-01-21T04:45:32.642Z,103037.47
2023-01-21T04:48:00.962Z,103040.53
2023-01-21T04:50:28.779Z,103044.78
2023-01-21T04:52:56.953Z,103037.03
2023-01-21T04:55:26.300Z,103052.50
2023-01-21T04:57:54.363Z,103062.25
2023-01-21T05:00:24.273Z,103061.50
2023-01-21T05:02:52.140Z,103066.59
2023-01-21T05:05:20.330Z,103075.97
2023-01-21T05:07:48.520Z,103069.22
2023-01-21T05:10:17.915Z,103074.97
2023-01-21T05:12:45.966Z,103014.25
2023-01-21T05:15:13.977Z,103057.75
2023-01-21T05:17:43.241Z,103080.72
2023-01-21T05:20:12.404Z,103081.13
2023-01-21T05:22:40.837Z,103012.44
2023-01-21T05:25:09.465Z,103076.31
2023-01-21T05:27:37.321Z,103085.28
2023-01-21T05:30:06.181Z,103085.59
2023-01-21T05:32:35.752Z,103087.72
2023-01-21T05:35:05.092Z,103101.69
2023-01-21T05:37:33.173Z,103111.09
2023-01-21T05:40:01.087Z,103103.50
2023-01-21T05:42:28.904Z,103120.22
2023-01-21T05:44:57.000Z,103114.06
2023-01-21T05:47:24.830Z,103131.38
2023-01-21T05:49:52.768Z,103135.13
2023-01-21T05:52:22.234Z,103137.94
2023-01-21T05:55:01.421Z,103137.94
2023-01-21T05:57:30.351Z,103085.09
2023-01-21T05:59:58.474Z,103139.63
2023-01-21T06:02:26.945Z,103112.28
2023-01-21T06:04:54.962Z,103152.03
2023-01-21T06:07:25.250Z,103146.69
2023-01-21T06:09:53.104Z,103155.34
2023-01-21T06:12:23.244Z,103152.44
2023-01-21T06:14:51.681Z,103155.25
2023-01-21T06:17:19.521Z,103151.59
2023-01-21T06:19:47.682Z,103158.59
2023-01-21T06:22:16.679Z,103146.84
2023-01-21T06:24:46.227Z,103115.59
2023-01-21T06:27:14.382Z,103167.81
2023-01-21T06:29:42.208Z,103154.16
2023-01-21T06:32:10.164Z,103182.44
2023-01-21T06:34:38.079Z,103182.09
2023-01-21T06:37:06.062Z,103190.56
2023-01-21T06:39:33.984Z,103196.47
2023-01-21T06:42:03.518Z,103191.72
2023-01-21T06:44:31.372Z,103205.53
2023-01-21T06:47:01.139Z,103188.97
2023-01-21T06:49:29.908Z,103196.41
2023-01-21T06:51:57.863Z,103187.75
2023-01-21T06:54:26.347Z,103198.31
2023-01-21T06:56:55.212Z,103208.22
2023-01-21T06:59:24.484Z,103199.81
2023-01-21T07:01:52.611Z,103205.78
2023-01-21T07:04:20.574Z,103195.91
2023-01-21T07:06:48.391Z,103207.69
2023-01-21T07:09:16.401Z,103213.19
2023-01-21T07:11:44.367Z,103219.94
2023-01-21T07:14:12.378Z,103210.78
2023-01-21T07:16:41.830Z,103202.13
2023-01-21T07:19:10.018Z,103226.84
2023-01-21T07:21:37.861Z,103226.97
2023-01-21T07:24:05.961Z,103229.91
2023-01-21T07:26:36.361Z,103234.47
2023-01-21T07:29:04.625Z,103216.75
2023-01-21T07:31:33.017Z,103229.72
2023-01-21T07:34:02.696Z,103234.66
2023-01-21T07:36:31.177Z,103227.75
2023-01-21T07:38:59.456Z,103231.94
2023-01-21T07:41:27.509Z,103241.81
2023-01-21T07:43:55.454Z,103212.53
2023-01-21T07:46:24.345Z,103253.63
2023-01-21T07:48:53.231Z,103196.19
2023-01-21T07:51:23.379Z,103268.19
2023-01-21T07:53:51.355Z,103272.00
2023-01-21T07:56:20.472Z,103265.78
2023-01-21T07:58:48.433Z,103276.41
2023-01-21T08:01:16.445Z,103273.16
2023-01-21T08:03:44.402Z,103243.75
2023-01-21T08:06:12.273Z,103241.59
2023-01-21T08:08:41.620Z,103285.38
2023-01-21T08:11:09.557Z,103286.06
2023-01-21T08:13:37.376Z,103284.72
2023-01-21T08:16:06.268Z,103273.16
2023-01-21T08:18:34.239Z,103293.16
2023-01-21T08:21:02.120Z,103292.56
2023-01-21T08:23:30.207Z,103277.50
2023-01-21T08:26:03.301Z,103298.97
2023-01-21T08:28:31.460Z,103298.41
2023-01-21T08:31:04.763Z,103307.06
2023-01-21T08:33:33.156Z,103232.13
2023-01-21T08:36:02.073Z,103290.09
2023-01-21T08:38:30.010Z,103292.50
2023-01-21T08:40:59.626Z,103216.47
2023-01-21T08:43:27.929Z,103291.91
2023-01-21T08:45:58.721Z,103272.47
2023-01-21T08:48:26.728Z,103264.44
2023-01-21T08:50:54.757Z,103313.78
2023-01-21T08:53:23.181Z,103316.19
2023-01-21T08:55:51.091Z,103327.94
2023-01-21T08:58:20.312Z,103339.31
2023-01-21T09:00:48.742Z,103337.84
2023-01-21T09:03:17.837Z,103340.94
2023-01-21T09:05:45.676Z,103289.06
2023-01-21T09:08:13.583Z,103338.00
2023-01-21T09:10:58.956Z,103331.81
2023-01-21T09:13:29.393Z,103327.53
2023-01-21T09:15:57.730Z,103343.41
2023-01-21T09:18:25.983Z,103360.06
2023-01-21T09:20:54.123Z,103355.59
2023-01-21T09:23:25.419Z,103361.66
2023-01-21T09:25:53.857Z,103355.94
2023-01-21T09:28:23.318Z,103363.84
2023-01-21T09:30:57.183Z,103367.69
2023-01-21T09:33:25.348Z,103334.53
2023-01-21T09:35:57.403Z,103380.75
2023-01-21T09:38:25.912Z,103350.31
2023-01-21T09:40:54.829Z,103307.31
2023-01-21T09:43:28.524Z,103356.97
2023-01-21T09:46:03.771Z,103382.63
2023-01-21T09:48:37.444Z,103402.81
2023-01-21T09:51:13.343Z,103408.88
2023-01-21T09:53:50.076Z,103414.03
2023-01-21T09:56:26.062Z,103390.72
2023-01-21T09:59:02.163Z,103402.97
2023-01-21T10:01:35.767Z,103398.97
2023-01-21T10:04:15.385Z,103404.41
2023-01-21T10:06:48.472Z,103376.50
2023-01-21T10:09:44.462Z,103398.16
2023-01-21T10:12:52.165Z,103396.03
2023-01-21T10:15:48.243Z,103414.25
2023-01-21T10:18:21.451Z,103417.41
2023-01-21T10:20:52.464Z,103395.81
2023-01-21T10:23:26.189Z,103407.50
2023-01-21T10:25:54.187Z,103406.19
2023-01-21T10:28:25.385Z,103403.53
2023-01-21T10:30:55.115Z,103261.28
2023-01-21T10:33:26.871Z,103388.19
2023-01-21T10:36:20.948Z,103391.09
2023-01-21T10:38:56.907Z,103390.69
2023-01-21T10:41:50.976Z,103382.22
2023-01-21T10:44:26.960Z,103386.34
2023-01-21T10:47:04.198Z,103371.72
2023-01-21T10:49:45.852Z,103381.53
2023-01-21T10:52:20.692Z,103331.34
2023-01-21T10:54:57.823Z,103379.47
2023-01-21T10:57:40.367Z,103382.19
2023-01-21T11:00:20.593Z,103378.38
2023-01-21T11:02:52.276Z,103373.63
2023-01-21T11:05:23.107Z,103395.84
2023-01-21T11:07:52.071Z,103394.75
2023-01-21T11:10:24.038Z,103369.72
2023-01-21T11:12:52.357Z,103394.25
2023-01-21T11:15:22.360Z,103388.00
2023-01-21T11:17:53.927Z,103386.94
2023-01-21T11:20:28.179Z,103329.06
2023-01-21T11:22:56.418Z,103386.75
2023-01-21T11:25:37.965Z,103386.63
2023-01-21T11:28:06.610Z,103389.94
2023-01-21T11:30:50.667Z,103385.94
2023-01-21T11:33:25.716Z,103400.16
2023-01-21T11:35:56.457Z,103392.59
2023-01-21T11:38:26.992Z,103395.75
2023-01-21T11:41:03.734Z,103393.41
2023-01-21T11:43:37.610Z,103386.06
2023-01-21T11:46:22.513Z,103397.47
2023-01-21T11:48:51.387Z,103358.91
2023-01-21T11:51:20.759Z,103389.16
2023-01-21T11:53:48.634Z,103381.81
2023-01-21T11:56:17.407Z,103398.16
2023-01-21T11:58:45.293Z,103396.72
2023-01-21T12:01:23.186Z,103396.31
2023-01-21T12:03:54.892Z,103397.63
2023-01-21T12:06:30.600Z,103396.38
2023-01-21T12:09:03.629Z,103395.28
2023-01-21T12:11:33.192Z,103398.03
2023-01-21T12:14:12.059Z,103397.69
2023-01-21T12:16:49.416Z,103403.59
2023-01-21T12:19:43.833Z,103400.69
2023-01-21T12:22:27.727Z,103377.59
2023-01-21T12:25:10.766Z,103397.94
2023-01-21T12:27:52.204Z,103402.50
2023-01-21T12:30:28.339Z,103390.09
2023-01-21T12:33:01.740Z,103340.06
2023-01-21T12:35:34.680Z,103351.06
2023-01-21T12:38:09.029Z,103411.03
2023-01-21T12:40:44.974Z,103367.53
2023-01-21T12:43:17.995Z,103398.28
2023-01-21T12:45:50.356Z,103423.69
2023-01-21T12:48:25.939Z,103417.47
2023-01-21T12:50:57.838Z,103405.34
2023-01-21T12:53:36.095Z,103410.06
2023-01-21T12:56:17.616Z,103413.69
2023-01-21T12:58:51.905Z,103411.81
2023-01-21T13:01:42.160Z,103407.94
2023-01-21T13:04:33.401Z,103414.16
2023-01-21T13:07:10.270Z,103390.28
2023-01-21T13:09:47.951Z,103391.38
2023-01-21T13:12:21.006Z,103332.13
2023-01-21T13:14:56.154Z,103400.31
2023-01-21T13:17:28.070Z,103395.56
2023-01-21T13:19:55.971Z,103402.88
2023-01-21T13:22:38.728Z,103400.31
2023-01-21T13:25:22.490Z,103388.41
2023-01-21T13:27:59.180Z,103343.34
2023-01-21T13:30:36.498Z,103343.25
2023-01-21T13:33:29.491Z,103386.72
2023-01-21T13:36:07.291Z,103394.97
2023-01-21T13:38:43.893Z,103384.25
2023-01-21T13:41:27.454Z,103389.03
2023-01-21T13:44:13.192Z,103388.44
2023-01-21T13:46:55.231Z,103384.78
2023-01-21T13:49:50.505Z,103396.75
2023-01-21T13:52:24.332Z,103402.28
2023-01-21T13:55:16.187Z,103378.50
2023-01-21T13:57:59.560Z,103406.94
2023-01-21T14:00:32.716Z,103413.03
2023-01-21T14:03:13.469Z,103416.00
2023-01-21T14:05:45.997Z,103411.06
2023-01-21T14:08:20.187Z,103408.00
2023-01-21T14:10:54.560Z,103402.47
2023-01-21T14:13:58.394Z,103388.56
2023-01-21T14:16:58.209Z,103398.25
2023-01-21T14:19:52.276Z,103398.06
2023-01-21T14:22:36.159Z,103395.53
2023-01-21T14:25:15.768Z,103413.91
2023-01-21T14:27:52.653Z,103418.69
2023-01-21T14:30:26.218Z,103426.44
2023-01-21T14:32:56.737Z,103430.09
2023-01-21T14:35:33.034Z,103443.50
2023-01-21T14:38:12.588Z,103433.41
2023-01-21T14:40:48.870Z,103452.31
2023-01-21T14:43:41.165Z,103444.28
2023-01-21T14:49:10.485Z,103467.72
2023-01-21T14:51:42.741Z,103465.34
2023-01-21T14:54:16.450Z,103465.53
2023-01-21T14:56:54.314Z,103431.53
2023-01-21T14:59:34.960Z,103447.34
2023-01-21T15:02:16.261Z,103472.13
2023-01-21T15:04:54.773Z,103474.31
2023-01-21T15:07:26.152Z,103465.50
2023-01-21T15:09:57.583Z,103472.50
2023-01-21T15:12:28.621Z,103464.44
2023-01-21T15:15:00.316Z,103470.88
2023-01-21T15:18:03.357Z,103479.13
2023-01-21T15:20:50.937Z,103480.78
2023-01-21T15:23:22.556Z,103480.97
2023-01-21T15:26:32.246Z,103480.59
2023-01-21T15:29:31.792Z,103441.84
2023-01-21T15:32:18.764Z,103504.28
2023-01-21T15:34:49.820Z,103501.34
2023-01-21T15:37:22.671Z,103449.00
2023-01-21T15:39:52.292Z,103462.03
2023-01-21T15:42:28.294Z,103529.28
2023-01-21T15:45:13.516Z,103523.22
2023-01-21T15:48:10.947Z,103528.16
2023-01-21T15:50:47.452Z,103524.31
2023-01-21T15:53:40.239Z,103525.59
2023-01-21T15:56:27.502Z,103536.44
2023-01-21T15:59:09.055Z,103544.16
2023-01-21T16:01:38.482Z,103541.78
2023-01-21T16:04:28.636Z,103539.75
2023-01-21T16:07:11.750Z,103538.47
2023-01-21T16:09:53.441Z,103522.13
2023-01-21T16:12:30.870Z,103540.13
2023-01-21T16:15:03.196Z,103533.69
2023-01-21T16:17:43.820Z,103518.06
2023-01-21T16:20:16.655Z,103551.34
2023-01-21T16:22:49.543Z,103532.78
2023-01-21T16:25:21.949Z,103519.19
2023-01-21T16:27:53.092Z,103545.44
2023-01-21T16:30:24.090Z,103531.31
2023-01-21T16:33:10.660Z,103524.88
2023-01-21T16:35:50.406Z,103555.38
2023-01-21T16:38:20.534Z,103531.28
2023-01-21T16:40:51.623Z,103556.66
2023-01-21T16:43:25.055Z,103549.13
2023-01-21T16:45:55.133Z,103568.03
2023-01-21T16:48:29.275Z,103572.59
2023-01-21T16:50:57.359Z,103563.97
2023-01-21T16:53:26.243Z,103552.00
2023-01-21T16:55:57.164Z,103569.25
2023-01-21T16:58:30.329Z,103550.72
2023-01-21T17:01:06.062Z,103574.25
2023-01-21T17:03:34.599Z,103425.25
2023-01-21T17:06:07.733Z,103576.09
2023-01-21T17:08:36.298Z,103574.63
2023-01-21T17:11:10.234Z,103574.22
2023-01-21T17:13:41.909Z,103578.25
2023-01-21T17:16:21.423Z,103567.78
2023-01-21T17:18:56.163Z,103583.56
2023-01-21T17:21:32.259Z,103574.94
2023-01-21T17:24:03.617Z,103580.47
2023-01-21T17:26:36.964Z,103582.28
2023-01-21T17:29:17.579Z,103580.63
2023-01-21T17:31:46.153Z,103555.44
2023-01-21T17:34:25.145Z,103553.97
2023-01-21T17:36:54.482Z,103569.44
2023-01-21T17:40:01.040Z,103581.75
2023-01-21T17:42:40.748Z,103585.25
2023-01-21T17:45:20.069Z,103576.28
2023-01-21T17:48:07.935Z,103573.69
2023-01-21T17:50:36.794Z,103578.81
2023-01-21T17:53:07.174Z,103592.81
2023-01-21T17:55:37.569Z,103592.63
2023-01-21T17:58:46.839Z,103590.38
2023-01-21T18:01:15.793Z,103588.84
2023-01-21T18:03:43.916Z,103599.44
2023-01-21T18:06:18.756Z,103564.13
2023-01-21T18:08:46.834Z,103603.25
2023-01-21T18:11:17.371Z,103602.38
2023-01-21T18:13:46.787Z,103596.72
2023-01-21T18:16:15.006Z,103601.88
2023-01-21T18:18:42.935Z,103577.81
2023-01-21T18:21:19.944Z,103595.13
2023-01-21T18:23:48.374Z,103591.84
2023-01-21T18:26:23.783Z,103599.75
2023-01-21T18:28:52.985Z,103606.19
2023-01-21T18:31:21.272Z,103601.97
2023-01-21T18:33:49.311Z,103578.25
2023-01-21T18:36:17.196Z,103586.53
2023-01-21T18:38:45.276Z,103588.22
2023-01-21T18:41:13.667Z,103588.75
2023-01-21T18:43:42.040Z,103596.28
2023-01-21T18:46:13.981Z,103587.66
2023-01-21T18:48:43.075Z,103593.00
2023-01-21T18:51:11.227Z,103596.13
2023-01-21T18:53:39.130Z,103593.38
2023-01-21T18:56:11.148Z,103583.63
2023-01-21T18:58:39.083Z,103600.19
2023-01-21T19:01:21.330Z,103602.41
2023-01-21T19:03:54.291Z,103599.63
2023-01-21T19:06:23.525Z,103604.78
2023-01-21T19:08:51.455Z,103581.03
2023-01-21T19:11:19.736Z,103606.75
2023-01-21T19:13:47.640Z,103617.19
2023-01-21T19:16:18.355Z,103620.44
2023-01-21T19:18:46.710Z,103617.47
2023-01-21T19:21:15.932Z,103625.03
2023-01-21T19:23:43.856Z,103635.50
2023-01-21T19:26:17.485Z,103602.44
2023-01-21T19:28:45.396Z,103618.31
2023-01-21T19:31:13.576Z,103617.19
2023-01-21T19:33:43.112Z,103619.38
2023-01-21T19:36:20.401Z,103642.75
2023-01-21T19:38:54.650Z,103638.88
2023-01-21T19:41:22.650Z,103620.09
2023-01-21T19:43:50.625Z,103636.09
2023-01-21T19:46:22.346Z,103642.50
2023-01-21T19:48:53.430Z,103474.44
2023-01-21T19:51:22.845Z,103636.44
2023-01-21T19:53:51.055Z,103645.84
2023-01-21T19:56:24.538Z,103638.66
2023-01-21T19:58:53.363Z,103655.44
2023-01-21T20:01:21.254Z,103613.84
2023-01-21T20:03:59.827Z,103658.38
2023-01-21T20:06:34.671Z,103660.38
2023-01-21T20:09:02.959Z,103658.53
2023-01-21T20:11:31.016Z,103645.50
2023-01-21T20:13:58.901Z,103657.63
2023-01-21T20:16:27.361Z,103646.97
2023-01-21T20:18:56.363Z,103623.75
2023-01-21T20:21:24.343Z,103627.22
2023-01-21T20:23:53.703Z,103652.00
2023-01-21T20:26:25.817Z,103644.25
2023-01-21T20:28:54.751Z,103658.19
2023-01-21T20:31:22.925Z,103659.50
2023-01-21T20:33:50.877Z,103653.75
2023-01-21T20:36:21.177Z,103521.47
2023-01-21T20:38:49.564Z,103660.03
2023-01-21T20:41:18.875Z,103652.91
2023-01-21T20:43:47.047Z,103653.28
2023-01-21T20:46:19.424Z,103607.09
2023-01-21T20:48:47.665Z,103625.25
2023-01-21T20:51:15.815Z,103653.59
2023-01-21T20:53:43.669Z,103662.81
2023-01-21T20:56:22.620Z,103665.22
2023-01-21T20:58:50.467Z,103664.47
2023-01-21T21:01:20.470Z,103617.75
2023-01-21T21:03:48.994Z,103661.38
2023-01-21T21:06:18.930Z,103626.75
2023-01-21T21:08:47.434Z,103641.81
2023-01-21T21:11:16.094Z,103605.25
2023-01-21T21:13:48.292Z,103654.38
2023-01-21T21:16:20.810Z,103652.72
2023-01-21T21:18:49.337Z,103652.91
2023-01-21T21:21:19.703Z,103640.75
2023-01-21T21:23:48.611Z,103658.00
2023-01-21T21:26:19.032Z,103657.44
2023-01-21T21:28:49.491Z,103615.50
2023-01-21T21:31:18.497Z,103660.53
2023-01-21T21:33:46.770Z,103669.34
2023-01-21T21:36:16.195Z,103670.09
2023-01-21T21:38:44.404Z,103653.91
2023-01-21T21:41:34.818Z,103570.03
2023-01-21T21:44:05.717Z,103651.53
2023-01-21T21:46:51.375Z,103662.38
2023-01-21T21:49:19.274Z,103665.09
2023-01-21T21:51:47.255Z,103654.09
2023-01-21T21:54:18.324Z,103669.13
2023-01-21T21:56:47.957Z,103637.16
2023-01-21T21:59:17.309Z,103671.69
2023-01-21T22:01:45.682Z,103671.09
2023-01-21T22:04:13.695Z,103647.53
2023-01-21T22:06:41.664Z,103673.50
2023-01-21T22:09:10.859Z,103684.47
2023-01-21T22:11:39.034Z,103685.16
2023-01-21T22:14:06.901Z,103691.16
2023-01-21T22:16:36.519Z,103690.59
2023-01-21T22:19:04.428Z,103677.50
2023-01-21T22:21:34.303Z,103651.78
2023-01-21T22:24:02.997Z,103672.84
2023-01-21T22:26:31.217Z,103680.41
2023-01-21T22:28:59.255Z,103664.97
2023-01-21T22:31:29.566Z,103689.72
2023-01-21T22:34:00.310Z,103690.66
2023-01-21T22:36:30.534Z,103701.72
2023-01-21T22:38:59.088Z,103674.25
2023-01-21T22:41:27.753Z,103702.25
2023-01-21T22:43:56.027Z,103702.41
2023-01-21T22:46:25.753Z,103699.63
2023-01-21T22:48:54.916Z,103703.78
2023-01-21T22:51:24.585Z,103702.13
2023-01-21T22:53:53.499Z,103704.25
2023-01-21T22:56:39.946Z,103706.09
2023-01-21T22:59:11.985Z,103715.94
2023-01-21T23:01:39.909Z,103713.06
2023-01-21T23:04:07.961Z,103696.94
2023-01-21T23:06:37.868Z,103706.22
2023-01-21T23:09:08.182Z,103716.34
2023-01-21T23:11:39.264Z,103707.38
2023-01-21T23:14:08.838Z,103705.41
2023-01-21T23:16:36.663Z,103694.59
2023-01-21T23:19:04.847Z,103700.13
2023-01-21T23:21:32.782Z,103700.53
2023-01-21T23:24:02.004Z,103705.94
2023-01-21T23:26:30.079Z,103674.56
2023-01-21T23:28:58.469Z,103702.72
2023-01-21T23:31:26.720Z,103703.84
2023-01-21T23:33:56.320Z,103708.97
2023-01-21T23:36:24.339Z,103675.03
2023-01-21T23:38:52.154Z,103707.78
2023-01-21T23:41:21.661Z,103682.41
2023-01-21T23:43:49.579Z,103708.19
2023-01-21T23:46:19.776Z,103682.53
2023-01-21T23:48:48.408Z,103698.38
2023-01-21T23:51:17.490Z,103702.84
2023-01-21T23:53:45.826Z,103681.41
2023-01-21T23:56:16.373Z,103694.31
2023-01-21T23:58:45.583Z,103689.25
